sensor_id;sensor_type;location;lat;lon;timestamp;temperature;humidity
26541;DHT22;14206;50.202;10.948;2022-07-18T00:01:16;17.10;57.60
26541;DHT22;14206;50.202;10.948;2022-07-18T00:03:43;17.10;56.20
26541;DHT22;14206;50.202;10.948;2022-07-18T00:06:10;17.10;57.40
26541;DHT22;14206;50.202;10.948;2022-07-18T00:08:37;17.00;56.20
26541;DHT22;14206;50.202;10.948;2022-07-18T00:11:04;17.00;56.40
26541;DHT22;14206;50.202;10.948;2022-07-18T00:13:31;17.00;56.70
26541;DHT22;14206;50.202;10.948;2022-07-18T00:15:58;16.90;56.80
26541;DHT22;14206;50.202;10.948;2022-07-18T00:18:25;16.90;57.10
26541;DHT22;14206;50.202;10.948;2022-07-18T00:20:51;16.90;58.20
26541;DHT22;14206;50.202;10.948;2022-07-18T00:23:18;16.90;57.50
26541;DHT22;14206;50.202;10.948;2022-07-18T00:25:45;16.80;57.90
26541;DHT22;14206;50.202;10.948;2022-07-18T00:28:12;16.80;60.00
26541;DHT22;14206;50.202;10.948;2022-07-18T00:30:39;16.70;59.60
26541;DHT22;14206;50.202;10.948;2022-07-18T00:33:06;16.60;60.20
26541;DHT22;14206;50.202;10.948;2022-07-18T00:35:33;16.60;60.40
26541;DHT22;14206;50.202;10.948;2022-07-18T00:38:01;16.50;62.80
26541;DHT22;14206;50.202;10.948;2022-07-18T00:40:29;16.40;60.90
26541;DHT22;14206;50.202;10.948;2022-07-18T00:42:56;16.30;60.90
26541;DHT22;14206;50.202;10.948;2022-07-18T00:45:23;16.30;62.50
26541;DHT22;14206;50.202;10.948;2022-07-18T00:47:50;16.20;61.20
26541;DHT22;14206;50.202;10.948;2022-07-18T00:50:18;16.20;62.50
26541;DHT22;14206;50.202;10.948;2022-07-18T00:52:45;16.10;61.50
26541;DHT22;14206;50.202;10.948;2022-07-18T00:55:13;16.00;62.30
26541;DHT22;14206;50.202;10.948;2022-07-18T00:57:40;16.00;62.70
26541;DHT22;14206;50.202;10.948;2022-07-18T01:00:13;15.90;63.80
26541;DHT22;14206;50.202;10.948;2022-07-18T01:02:59;15.90;63.70
26541;DHT22;14206;50.202;10.948;2022-07-18T01:05:25;15.80;63.70
26541;DHT22;14206;50.202;10.948;2022-07-18T01:07:52;15.70;63.30
26541;DHT22;14206;50.202;10.948;2022-07-18T01:10:19;15.70;63.40
26541;DHT22;14206;50.202;10.948;2022-07-18T01:12:46;15.60;63.10
26541;DHT22;14206;50.202;10.948;2022-07-18T01:15:13;15.60;62.90
26541;DHT22;14206;50.202;10.948;2022-07-18T01:17:40;15.50;63.20
26541;DHT22;14206;50.202;10.948;2022-07-18T01:20:07;15.50;63.60
26541;DHT22;14206;50.202;10.948;2022-07-18T01:22:34;15.40;64.50
26541;DHT22;14206;50.202;10.948;2022-07-18T01:25:01;15.30;64.00
26541;DHT22;14206;50.202;10.948;2022-07-18T01:27:28;15.30;64.70
26541;DHT22;14206;50.202;10.948;2022-07-18T01:29:55;15.30;64.50
26541;DHT22;14206;50.202;10.948;2022-07-18T01:32:22;15.20;65.70
26541;DHT22;14206;50.202;10.948;2022-07-18T01:34:49;15.20;66.50
26541;DHT22;14206;50.202;10.948;2022-07-18T01:37:16;15.10;67.90
26541;DHT22;14206;50.202;10.948;2022-07-18T01:39:44;15.10;66.20
26541;DHT22;14206;50.202;10.948;2022-07-18T01:42:12;15.00;66.40
26541;DHT22;14206;50.202;10.948;2022-07-18T01:44:39;15.00;66.50
26541;DHT22;14206;50.202;10.948;2022-07-18T01:47:06;15.00;67.10
26541;DHT22;14206;50.202;10.948;2022-07-18T01:49:33;14.80;67.20
26541;DHT22;14206;50.202;10.948;2022-07-18T01:52:01;14.70;67.20
26541;DHT22;14206;50.202;10.948;2022-07-18T01:54:29;14.70;67.80
26541;DHT22;14206;50.202;10.948;2022-07-18T01:56:55;14.70;68.30
26541;DHT22;14206;50.202;10.948;2022-07-18T01:59:23;14.60;67.70
26541;DHT22;14206;50.202;10.948;2022-07-18T02:01:50;14.60;68.40
26541;DHT22;14206;50.202;10.948;2022-07-18T02:04:17;14.60;68.20
26541;DHT22;14206;50.202;10.948;2022-07-18T02:06:43;14.60;68.70
26541;DHT22;14206;50.202;10.948;2022-07-18T02:09:10;14.60;69.50
26541;DHT22;14206;50.202;10.948;2022-07-18T02:11:37;14.50;68.50
26541;DHT22;14206;50.202;10.948;2022-07-18T02:14:04;14.50;70.10
26541;DHT22;14206;50.202;10.948;2022-07-18T02:16:31;14.50;68.90
26541;DHT22;14206;50.202;10.948;2022-07-18T02:18:59;14.40;68.90
26541;DHT22;14206;50.202;10.948;2022-07-18T02:21:26;14.40;69.20
26541;DHT22;14206;50.202;10.948;2022-07-18T02:23:53;14.30;69.90
26541;DHT22;14206;50.202;10.948;2022-07-18T02:26:24;14.20;69.70
26541;DHT22;14206;50.202;10.948;2022-07-18T02:28:51;14.10;69.30
26541;DHT22;14206;50.202;10.948;2022-07-18T02:31:18;14.10;70.60
26541;DHT22;14206;50.202;10.948;2022-07-18T02:33:45;14.10;70.50
26541;DHT22;14206;50.202;10.948;2022-07-18T02:36:12;14.00;70.10
26541;DHT22;14206;50.202;10.948;2022-07-18T02:38:39;14.00;70.40
26541;DHT22;14206;50.202;10.948;2022-07-18T02:41:05;14.00;71.00
26541;DHT22;14206;50.202;10.948;2022-07-18T02:43:32;14.00;72.20
26541;DHT22;14206;50.202;10.948;2022-07-18T02:45:59;14.00;71.10
26541;DHT22;14206;50.202;10.948;2022-07-18T02:48:26;13.90;71.10
26541;DHT22;14206;50.202;10.948;2022-07-18T02:50:53;13.90;71.00
26541;DHT22;14206;50.202;10.948;2022-07-18T02:53:20;13.90;70.80
26541;DHT22;14206;50.202;10.948;2022-07-18T02:55:50;13.90;72.00
26541;DHT22;14206;50.202;10.948;2022-07-18T02:58:17;13.90;70.80
26541;DHT22;14206;50.202;10.948;2022-07-18T03:00:44;13.80;70.90
26541;DHT22;14206;50.202;10.948;2022-07-18T03:03:11;13.80;71.80
26541;DHT22;14206;50.202;10.948;2022-07-18T03:05:38;13.70;72.20
26541;DHT22;14206;50.202;10.948;2022-07-18T03:08:05;13.60;73.20
26541;DHT22;14206;50.202;10.948;2022-07-18T03:10:31;13.60;73.00
26541;DHT22;14206;50.202;10.948;2022-07-18T03:12:58;13.60;72.60
26541;DHT22;14206;50.202;10.948;2022-07-18T03:15:25;13.50;71.90
26541;DHT22;14206;50.202;10.948;2022-07-18T03:17:52;13.50;71.80
26541;DHT22;14206;50.202;10.948;2022-07-18T03:20:19;13.40;71.80
26541;DHT22;14206;50.202;10.948;2022-07-18T03:22:46;13.30;72.30
26541;DHT22;14206;50.202;10.948;2022-07-18T03:25:12;13.30;72.60
26541;DHT22;14206;50.202;10.948;2022-07-18T03:27:42;13.30;72.90
26541;DHT22;14206;50.202;10.948;2022-07-18T03:30:09;13.40;72.50
26541;DHT22;14206;50.202;10.948;2022-07-18T03:32:36;13.40;73.00
26541;DHT22;14206;50.202;10.948;2022-07-18T03:35:03;13.30;72.40
26541;DHT22;14206;50.202;10.948;2022-07-18T03:37:30;13.30;73.00
26541;DHT22;14206;50.202;10.948;2022-07-18T03:39:57;13.30;73.10
26541;DHT22;14206;50.202;10.948;2022-07-18T03:42:24;13.20;73.90
26541;DHT22;14206;50.202;10.948;2022-07-18T03:44:51;13.30;73.70
26541;DHT22;14206;50.202;10.948;2022-07-18T03:47:18;13.30;73.10
26541;DHT22;14206;50.202;10.948;2022-07-18T03:49:45;13.30;72.70
26541;DHT22;14206;50.202;10.948;2022-07-18T03:52:12;13.30;72.80
26541;DHT22;14206;50.202;10.948;2022-07-18T03:54:38;13.30;73.40
26541;DHT22;14206;50.202;10.948;2022-07-18T03:57:06;13.30;73.10
26541;DHT22;14206;50.202;10.948;2022-07-18T03:59:33;13.30;73.30
26541;DHT22;14206;50.202;10.948;2022-07-18T04:02:02;13.30;73.80
26541;DHT22;14206;50.202;10.948;2022-07-18T04:04:28;13.30;74.20
26541;DHT22;14206;50.202;10.948;2022-07-18T04:06:55;13.30;74.60
26541;DHT22;14206;50.202;10.948;2022-07-18T04:09:29;13.40;73.50
26541;DHT22;14206;50.202;10.948;2022-07-18T04:11:55;13.30;73.30
26541;DHT22;14206;50.202;10.948;2022-07-18T04:14:22;13.30;74.80
26541;DHT22;14206;50.202;10.948;2022-07-18T04:16:49;13.30;73.80
26541;DHT22;14206;50.202;10.948;2022-07-18T04:19:16;13.30;73.40
26541;DHT22;14206;50.202;10.948;2022-07-18T04:21:46;13.40;73.40
26541;DHT22;14206;50.202;10.948;2022-07-18T04:24:13;13.50;72.30
26541;DHT22;14206;50.202;10.948;2022-07-18T04:26:40;13.60;72.80
26541;DHT22;14206;50.202;10.948;2022-07-18T04:29:07;13.70;71.60
26541;DHT22;14206;50.202;10.948;2022-07-18T04:31:33;13.80;73.40
26541;DHT22;14206;50.202;10.948;2022-07-18T04:34:00;13.90;73.00
26541;DHT22;14206;50.202;10.948;2022-07-18T04:36:28;14.10;73.70
26541;DHT22;14206;50.202;10.948;2022-07-18T04:38:54;14.20;73.60
26541;DHT22;14206;50.202;10.948;2022-07-18T04:41:21;14.20;73.90
26541;DHT22;14206;50.202;10.948;2022-07-18T04:43:51;14.40;74.30
26541;DHT22;14206;50.202;10.948;2022-07-18T04:46:18;14.40;72.80
26541;DHT22;14206;50.202;10.948;2022-07-18T04:48:45;14.60;73.80
26541;DHT22;14206;50.202;10.948;2022-07-18T04:51:12;14.70;73.20
26541;DHT22;14206;50.202;10.948;2022-07-18T04:53:39;14.80;72.70
26541;DHT22;14206;50.202;10.948;2022-07-18T04:56:06;14.90;74.10
26541;DHT22;14206;50.202;10.948;2022-07-18T04:58:33;15.10;74.10
26541;DHT22;14206;50.202;10.948;2022-07-18T05:01:03;15.20;73.30
26541;DHT22;14206;50.202;10.948;2022-07-18T05:03:29;15.30;72.00
26541;DHT22;14206;50.202;10.948;2022-07-18T05:05:56;15.40;72.30
26541;DHT22;14206;50.202;10.948;2022-07-18T05:08:41;15.50;75.40
26541;DHT22;14206;50.202;10.948;2022-07-18T05:11:12;15.60;75.60
26541;DHT22;14206;50.202;10.948;2022-07-18T05:13:44;15.70;74.20
26541;DHT22;14206;50.202;10.948;2022-07-18T05:16:11;15.70;72.90
26541;DHT22;14206;50.202;10.948;2022-07-18T05:18:38;15.90;71.70
26541;DHT22;14206;50.202;10.948;2022-07-18T05:21:05;15.90;71.90
26541;DHT22;14206;50.202;10.948;2022-07-18T05:23:32;16.00;71.80
26541;DHT22;14206;50.202;10.948;2022-07-18T05:25:59;16.10;71.70
26541;DHT22;14206;50.202;10.948;2022-07-18T05:28:26;16.20;70.40
26541;DHT22;14206;50.202;10.948;2022-07-18T05:30:53;16.40;69.10
26541;DHT22;14206;50.202;10.948;2022-07-18T05:33:21;16.50;68.40
26541;DHT22;14206;50.202;10.948;2022-07-18T05:35:48;16.70;68.70
26541;DHT22;14206;50.202;10.948;2022-07-18T05:38:14;16.80;67.50
26541;DHT22;14206;50.202;10.948;2022-07-18T05:40:41;17.00;66.60
26541;DHT22;14206;50.202;10.948;2022-07-18T05:43:08;17.10;65.10
26541;DHT22;14206;50.202;10.948;2022-07-18T05:45:35;17.30;64.20
26541;DHT22;14206;50.202;10.948;2022-07-18T05:48:02;17.50;64.40
26541;DHT22;14206;50.202;10.948;2022-07-18T05:50:29;17.70;63.70
26541;DHT22;14206;50.202;10.948;2022-07-18T05:52:56;17.80;63.10
26541;DHT22;14206;50.202;10.948;2022-07-18T05:55:23;18.00;63.20
26541;DHT22;14206;50.202;10.948;2022-07-18T05:57:50;18.20;62.70
26541;DHT22;14206;50.202;10.948;2022-07-18T06:00:18;18.40;61.90
26541;DHT22;14206;50.202;10.948;2022-07-18T06:02:49;18.60;64.30
26541;DHT22;14206;50.202;10.948;2022-07-18T06:05:16;18.80;59.90
26541;DHT22;14206;50.202;10.948;2022-07-18T06:07:53;18.90;61.50
26541;DHT22;14206;50.202;10.948;2022-07-18T06:10:20;19.20;60.20
26541;DHT22;14206;50.202;10.948;2022-07-18T06:12:47;19.40;58.80
26541;DHT22;14206;50.202;10.948;2022-07-18T06:15:14;19.50;59.50
26541;DHT22;14206;50.202;10.948;2022-07-18T06:17:42;19.80;58.20
26541;DHT22;14206;50.202;10.948;2022-07-18T06:20:09;20.00;56.30
26541;DHT22;14206;50.202;10.948;2022-07-18T06:22:36;20.30;55.70
26541;DHT22;14206;50.202;10.948;2022-07-18T06:25:03;20.70;56.70
26541;DHT22;14206;50.202;10.948;2022-07-18T06:27:30;21.60;55.40
26541;DHT22;14206;50.202;10.948;2022-07-18T06:29:57;23.00;52.70
26541;DHT22;14206;50.202;10.948;2022-07-18T06:32:25;24.70;47.20
26541;DHT22;14206;50.202;10.948;2022-07-18T06:34:52;26.30;45.00
26541;DHT22;14206;50.202;10.948;2022-07-18T06:37:19;27.70;41.40
26541;DHT22;14206;50.202;10.948;2022-07-18T06:39:46;28.80;41.30
26541;DHT22;14206;50.202;10.948;2022-07-18T06:42:12;29.70;40.50
26541;DHT22;14206;50.202;10.948;2022-07-18T06:44:40;30.50;39.20
26541;DHT22;14206;50.202;10.948;2022-07-18T06:47:07;31.40;37.50
26541;DHT22;14206;50.202;10.948;2022-07-18T06:49:34;32.30;36.30
26541;DHT22;14206;50.202;10.948;2022-07-18T06:52:01;33.00;36.10
26541;DHT22;14206;50.202;10.948;2022-07-18T06:54:30;33.70;34.40
26541;DHT22;14206;50.202;10.948;2022-07-18T06:56:59;34.70;33.50
26541;DHT22;14206;50.202;10.948;2022-07-18T06:59:26;35.70;31.80
26541;DHT22;14206;50.202;10.948;2022-07-18T07:01:53;36.50;32.10
26541;DHT22;14206;50.202;10.948;2022-07-18T07:04:20;36.90;31.00
26541;DHT22;14206;50.202;10.948;2022-07-18T07:06:47;37.40;30.50
26541;DHT22;14206;50.202;10.948;2022-07-18T07:09:14;38.00;29.80
26541;DHT22;14206;50.202;10.948;2022-07-18T07:11:41;38.50;27.90
26541;DHT22;14206;50.202;10.948;2022-07-18T07:14:07;39.10;28.30
26541;DHT22;14206;50.202;10.948;2022-07-18T07:16:34;39.60;26.10
26541;DHT22;14206;50.202;10.948;2022-07-18T07:19:01;40.00;26.90
26541;DHT22;14206;50.202;10.948;2022-07-18T07:21:28;40.20;27.40
26541;DHT22;14206;50.202;10.948;2022-07-18T07:23:55;40.80;26.00
26541;DHT22;14206;50.202;10.948;2022-07-18T07:26:24;41.30;25.60
26541;DHT22;14206;50.202;10.948;2022-07-18T07:28:51;41.60;24.20
26541;DHT22;14206;50.202;10.948;2022-07-18T07:31:17;41.80;25.90
26541;DHT22;14206;50.202;10.948;2022-07-18T07:33:44;41.90;24.50
26541;DHT22;14206;50.202;10.948;2022-07-18T07:36:11;42.40;24.10
26541;DHT22;14206;50.202;10.948;2022-07-18T07:38:38;42.60;23.00
26541;DHT22;14206;50.202;10.948;2022-07-18T07:41:05;42.40;23.50
26541;DHT22;14206;50.202;10.948;2022-07-18T07:43:33;42.50;23.20
26541;DHT22;14206;50.202;10.948;2022-07-18T07:46:03;43.00;23.00
26541;DHT22;14206;50.202;10.948;2022-07-18T07:48:30;43.40;22.20
26541;DHT22;14206;50.202;10.948;2022-07-18T07:50:57;43.60;21.50
26541;DHT22;14206;50.202;10.948;2022-07-18T07:53:24;43.70;22.80
26541;DHT22;14206;50.202;10.948;2022-07-18T07:55:54;43.70;21.20
26541;DHT22;14206;50.202;10.948;2022-07-18T07:58:21;43.30;21.40
26541;DHT22;14206;50.202;10.948;2022-07-18T08:00:48;43.40;22.00
26541;DHT22;14206;50.202;10.948;2022-07-18T08:03:14;43.80;21.40
26541;DHT22;14206;50.202;10.948;2022-07-18T08:05:45;43.90;21.80
26541;DHT22;14206;50.202;10.948;2022-07-18T08:08:13;43.90;21.10
26541;DHT22;14206;50.202;10.948;2022-07-18T08:10:40;44.00;21.00
26541;DHT22;14206;50.202;10.948;2022-07-18T08:13:10;43.80;21.00
26541;DHT22;14206;50.202;10.948;2022-07-18T08:15:37;44.00;22.30
26541;DHT22;14206;50.202;10.948;2022-07-18T08:18:04;44.20;23.50
26541;DHT22;14206;50.202;10.948;2022-07-18T08:20:31;44.50;22.60
26541;DHT22;14206;50.202;10.948;2022-07-18T08:25:31;44.80;20.80
26541;DHT22;14206;50.202;10.948;2022-07-18T08:27:59;44.70;21.30
26541;DHT22;14206;50.202;10.948;2022-07-18T08:30:26;45.50;22.60
26541;DHT22;14206;50.202;10.948;2022-07-18T08:32:53;46.40;21.60
26541;DHT22;14206;50.202;10.948;2022-07-18T08:35:20;47.00;20.70
26541;DHT22;14206;50.202;10.948;2022-07-18T08:37:48;47.30;19.50
26541;DHT22;14206;50.202;10.948;2022-07-18T08:40:15;47.10;19.60
26541;DHT22;14206;50.202;10.948;2022-07-18T08:42:42;47.10;20.80
26541;DHT22;14206;50.202;10.948;2022-07-18T08:45:29;47.10;20.50
26541;DHT22;14206;50.202;10.948;2022-07-18T08:47:56;47.20;21.30
26541;DHT22;14206;50.202;10.948;2022-07-18T08:50:23;47.10;21.80
26541;DHT22;14206;50.202;10.948;2022-07-18T08:52:50;47.20;20.60
26541;DHT22;14206;50.202;10.948;2022-07-18T08:55:20;47.50;20.80
26541;DHT22;14206;50.202;10.948;2022-07-18T08:57:55;47.60;19.50
26541;DHT22;14206;50.202;10.948;2022-07-18T09:00:22;47.80;19.30
26541;DHT22;14206;50.202;10.948;2022-07-18T09:02:56;47.60;19.50
26541;DHT22;14206;50.202;10.948;2022-07-18T09:05:23;47.70;20.00
26541;DHT22;14206;50.202;10.948;2022-07-18T09:08:09;48.10;20.80
26541;DHT22;14206;50.202;10.948;2022-07-18T09:10:52;48.60;18.50
26541;DHT22;14206;50.202;10.948;2022-07-18T09:21:08;48.70;18.10
26541;DHT22;14206;50.202;10.948;2022-07-18T09:23:35;48.80;17.70
26541;DHT22;14206;50.202;10.948;2022-07-18T09:26:05;48.70;16.70
26541;DHT22;14206;50.202;10.948;2022-07-18T09:28:51;48.50;16.90
26541;DHT22;14206;50.202;10.948;2022-07-18T09:31:38;48.60;17.10
26541;DHT22;14206;50.202;10.948;2022-07-18T09:34:05;48.70;18.90
26541;DHT22;14206;50.202;10.948;2022-07-18T09:36:32;49.10;18.30
26541;DHT22;14206;50.202;10.948;2022-07-18T09:39:18;49.20;18.50
26541;DHT22;14206;50.202;10.948;2022-07-18T09:41:46;49.30;17.60
26541;DHT22;14206;50.202;10.948;2022-07-18T09:44:16;49.40;18.50
26541;DHT22;14206;50.202;10.948;2022-07-18T09:46:58;49.10;17.40
26541;DHT22;14206;50.202;10.948;2022-07-18T09:49:28;48.90;18.70
26541;DHT22;14206;50.202;10.948;2022-07-18T09:52:02;48.20;17.40
26541;DHT22;14206;50.202;10.948;2022-07-18T09:54:36;48.00;17.90
26541;DHT22;14206;50.202;10.948;2022-07-18T09:57:03;47.90;17.70
26541;DHT22;14206;50.202;10.948;2022-07-18T09:59:30;48.00;19.30
26541;DHT22;14206;50.202;10.948;2022-07-18T10:01:57;48.00;18.40
26541;DHT22;14206;50.202;10.948;2022-07-18T10:04:24;48.20;18.40
26541;DHT22;14206;50.202;10.948;2022-07-18T10:06:51;48.50;19.40
26541;DHT22;14206;50.202;10.948;2022-07-18T10:09:18;48.60;18.00
26541;DHT22;14206;50.202;10.948;2022-07-18T10:11:45;48.50;18.80
26541;DHT22;14206;50.202;10.948;2022-07-18T10:14:12;48.20;17.50
26541;DHT22;14206;50.202;10.948;2022-07-18T10:16:39;48.20;18.70
26541;DHT22;14206;50.202;10.948;2022-07-18T10:19:06;48.30;17.70
26541;DHT22;14206;50.202;10.948;2022-07-18T10:21:33;48.50;17.20
26541;DHT22;14206;50.202;10.948;2022-07-18T10:24:00;48.80;18.80
26541;DHT22;14206;50.202;10.948;2022-07-18T10:26:28;49.00;17.60
26541;DHT22;14206;50.202;10.948;2022-07-18T10:31:23;48.30;17.10
26541;DHT22;14206;50.202;10.948;2022-07-18T10:33:51;48.20;17.50
26541;DHT22;14206;50.202;10.948;2022-07-18T10:36:19;48.30;17.10
26541;DHT22;14206;50.202;10.948;2022-07-18T10:57:29;46.90;18.30
26541;DHT22;14206;50.202;10.948;2022-07-18T11:02:30;46.80;18.00
26541;DHT22;14206;50.202;10.948;2022-07-18T11:04:57;46.90;17.70
26541;DHT22;14206;50.202;10.948;2022-07-18T11:07:24;47.10;18.00
26541;DHT22;14206;50.202;10.948;2022-07-18T11:09:51;47.20;17.90
26541;DHT22;14206;50.202;10.948;2022-07-18T11:12:23;46.70;18.20
26541;DHT22;14206;50.202;10.948;2022-07-18T11:20:28;46.50;18.80
26541;DHT22;14206;50.202;10.948;2022-07-18T11:22:55;46.80;18.30
26541;DHT22;14206;50.202;10.948;2022-07-18T11:25:27;46.90;18.70
26541;DHT22;14206;50.202;10.948;2022-07-18T11:28:15;47.10;18.10
26541;DHT22;14206;50.202;10.948;2022-07-18T11:30:42;47.40;18.10
26541;DHT22;14206;50.202;10.948;2022-07-18T11:33:23;47.20;17.80
26541;DHT22;14206;50.202;10.948;2022-07-18T11:35:50;47.00;18.10
26541;DHT22;14206;50.202;10.948;2022-07-18T11:38:18;47.00;18.60
26541;DHT22;14206;50.202;10.948;2022-07-18T11:40:48;47.20;18.50
26541;DHT22;14206;50.202;10.948;2022-07-18T11:43:22;47.10;18.20
26541;DHT22;14206;50.202;10.948;2022-07-18T11:45:58;47.00;18.60
26541;DHT22;14206;50.202;10.948;2022-07-18T11:48:32;47.20;18.10
26541;DHT22;14206;50.202;10.948;2022-07-18T11:51:00;46.70;18.20
26541;DHT22;14206;50.202;10.948;2022-07-18T11:53:27;46.60;19.70
26541;DHT22;14206;50.202;10.948;2022-07-18T11:55:55;46.90;18.80
26541;DHT22;14206;50.202;10.948;2022-07-18T11:58:22;47.00;18.90
26541;DHT22;14206;50.202;10.948;2022-07-18T12:00:49;47.00;18.20
26541;DHT22;14206;50.202;10.948;2022-07-18T12:03:17;46.80;18.50
26541;DHT22;14206;50.202;10.948;2022-07-18T12:05:45;46.80;19.00
26541;DHT22;14206;50.202;10.948;2022-07-18T12:16:06;46.30;21.40
26541;DHT22;14206;50.202;10.948;2022-07-18T12:18:33;46.50;20.70
26541;DHT22;14206;50.202;10.948;2022-07-18T12:21:07;47.00;19.50
26541;DHT22;14206;50.202;10.948;2022-07-18T12:23:34;46.80;18.50
26541;DHT22;14206;50.202;10.948;2022-07-18T12:26:01;46.70;18.60
26541;DHT22;14206;50.202;10.948;2022-07-18T12:28:28;46.60;18.60
26541;DHT22;14206;50.202;10.948;2022-07-18T12:30:55;46.10;18.80
26541;DHT22;14206;50.202;10.948;2022-07-18T12:33:26;45.60;19.10
26541;DHT22;14206;50.202;10.948;2022-07-18T12:35:59;45.40;19.40
26541;DHT22;14206;50.202;10.948;2022-07-18T12:38:27;45.10;19.60
26541;DHT22;14206;50.202;10.948;2022-07-18T12:40:58;44.90;20.20
26541;DHT22;14206;50.202;10.948;2022-07-18T12:43:31;44.80;20.10
26541;DHT22;14206;50.202;10.948;2022-07-18T12:45:58;44.60;27.10
26541;DHT22;14206;50.202;10.948;2022-07-18T12:48:27;41.90;27.30
26541;DHT22;14206;50.202;10.948;2022-07-18T12:50:58;39.50;27.40
26541;DHT22;14206;50.202;10.948;2022-07-18T12:53:27;38.10;27.20
26541;DHT22;14206;50.202;10.948;2022-07-18T12:55:54;37.20;26.20
26541;DHT22;14206;50.202;10.948;2022-07-18T12:58:21;36.60;27.10
26541;DHT22;14206;50.202;10.948;2022-07-18T13:00:48;36.40;28.90
26541;DHT22;14206;50.202;10.948;2022-07-18T13:03:15;36.50;29.90
26541;DHT22;14206;50.202;10.948;2022-07-18T13:05:42;36.50;27.30
26541;DHT22;14206;50.202;10.948;2022-07-18T13:08:09;36.60;28.60
26541;DHT22;14206;50.202;10.948;2022-07-18T13:10:37;36.70;29.60
26541;DHT22;14206;50.202;10.948;2022-07-18T13:13:05;36.80;28.60
26541;DHT22;14206;50.202;10.948;2022-07-18T13:15:32;36.70;28.30
26541;DHT22;14206;50.202;10.948;2022-07-18T13:17:59;36.40;28.20
26541;DHT22;14206;50.202;10.948;2022-07-18T13:20:26;36.30;26.50
26541;DHT22;14206;50.202;10.948;2022-07-18T13:22:52;36.00;27.80
26541;DHT22;14206;50.202;10.948;2022-07-18T13:25:20;36.00;27.90
26541;DHT22;14206;50.202;10.948;2022-07-18T13:27:48;36.10;27.40
26541;DHT22;14206;50.202;10.948;2022-07-18T13:30:15;36.00;26.70
26541;DHT22;14206;50.202;10.948;2022-07-18T13:32:42;35.90;29.10
26541;DHT22;14206;50.202;10.948;2022-07-18T13:35:11;35.90;30.00
26541;DHT22;14206;50.202;10.948;2022-07-18T13:37:38;35.90;28.50
26541;DHT22;14206;50.202;10.948;2022-07-18T13:40:05;36.00;28.10
26541;DHT22;14206;50.202;10.948;2022-07-18T13:42:33;36.20;27.20
26541;DHT22;14206;50.202;10.948;2022-07-18T13:44:59;36.00;27.30
26541;DHT22;14206;50.202;10.948;2022-07-18T13:47:26;35.90;26.70
26541;DHT22;14206;50.202;10.948;2022-07-18T13:49:53;35.90;28.20
26541;DHT22;14206;50.202;10.948;2022-07-18T13:52:20;36.00;31.30
26541;DHT22;14206;50.202;10.948;2022-07-18T13:54:47;36.20;30.80
26541;DHT22;14206;50.202;10.948;2022-07-18T13:57:15;36.30;28.70
26541;DHT22;14206;50.202;10.948;2022-07-18T13:59:42;36.30;29.20
26541;DHT22;14206;50.202;10.948;2022-07-18T14:02:09;36.10;31.90
26541;DHT22;14206;50.202;10.948;2022-07-18T14:04:36;36.10;27.90
26541;DHT22;14206;50.202;10.948;2022-07-18T14:07:23;36.20;29.10
26541;DHT22;14206;50.202;10.948;2022-07-18T14:09:49;36.10;30.10
26541;DHT22;14206;50.202;10.948;2022-07-18T14:12:24;36.10;28.30
26541;DHT22;14206;50.202;10.948;2022-07-18T14:14:51;36.00;32.10
26541;DHT22;14206;50.202;10.948;2022-07-18T14:17:17;35.80;29.20
26541;DHT22;14206;50.202;10.948;2022-07-18T14:19:44;35.50;28.50
26541;DHT22;14206;50.202;10.948;2022-07-18T14:22:11;35.30;29.00
26541;DHT22;14206;50.202;10.948;2022-07-18T14:24:39;35.00;28.10
26541;DHT22;14206;50.202;10.948;2022-07-18T14:27:06;34.80;28.80
26541;DHT22;14206;50.202;10.948;2022-07-18T14:29:33;34.70;28.30
26541;DHT22;14206;50.202;10.948;2022-07-18T14:32:00;34.50;28.90
26541;DHT22;14206;50.202;10.948;2022-07-18T14:34:28;34.40;28.90
26541;DHT22;14206;50.202;10.948;2022-07-18T14:36:55;34.20;29.40
26541;DHT22;14206;50.202;10.948;2022-07-18T14:39:21;34.10;30.00
26541;DHT22;14206;50.202;10.948;2022-07-18T14:41:48;34.10;30.60
26541;DHT22;14206;50.202;10.948;2022-07-18T14:44:15;34.10;30.10
26541;DHT22;14206;50.202;10.948;2022-07-18T14:46:42;33.90;31.50
26541;DHT22;14206;50.202;10.948;2022-07-18T14:49:09;33.70;31.80
26541;DHT22;14206;50.202;10.948;2022-07-18T14:51:36;33.70;30.50
26541;DHT22;14206;50.202;10.948;2022-07-18T14:54:03;33.80;31.10
26541;DHT22;14206;50.202;10.948;2022-07-18T14:56:30;33.70;32.70
26541;DHT22;14206;50.202;10.948;2022-07-18T14:58:57;33.50;31.40
26541;DHT22;14206;50.202;10.948;2022-07-18T15:01:23;33.40;31.00
26541;DHT22;14206;50.202;10.948;2022-07-18T15:03:51;33.20;31.50
26541;DHT22;14206;50.202;10.948;2022-07-18T15:06:23;33.10;33.10
26541;DHT22;14206;50.202;10.948;2022-07-18T15:08:50;33.00;32.10
26541;DHT22;14206;50.202;10.948;2022-07-18T15:11:17;32.90;32.00
26541;DHT22;14206;50.202;10.948;2022-07-18T15:13:45;32.90;31.80
26541;DHT22;14206;50.202;10.948;2022-07-18T15:16:12;33.00;31.80
26541;DHT22;14206;50.202;10.948;2022-07-18T15:18:39;32.90;31.30
26541;DHT22;14206;50.202;10.948;2022-07-18T15:21:06;32.90;31.20
26541;DHT22;14206;50.202;10.948;2022-07-18T15:23:33;32.80;31.80
26541;DHT22;14206;50.202;10.948;2022-07-18T15:26:00;32.70;31.40
26541;DHT22;14206;50.202;10.948;2022-07-18T15:28:27;32.70;30.80
26541;DHT22;14206;50.202;10.948;2022-07-18T15:30:54;32.70;30.70
26541;DHT22;14206;50.202;10.948;2022-07-18T15:33:21;32.70;31.00
26541;DHT22;14206;50.202;10.948;2022-07-18T15:35:47;32.70;32.10
26541;DHT22;14206;50.202;10.948;2022-07-18T15:38:14;32.70;31.60
26541;DHT22;14206;50.202;10.948;2022-07-18T15:40:41;32.60;32.30
26541;DHT22;14206;50.202;10.948;2022-07-18T15:43:10;32.60;32.20
26541;DHT22;14206;50.202;10.948;2022-07-18T15:45:37;32.50;31.60
26541;DHT22;14206;50.202;10.948;2022-07-18T15:48:04;32.50;33.70
26541;DHT22;14206;50.202;10.948;2022-07-18T15:50:31;32.40;34.80
26541;DHT22;14206;50.202;10.948;2022-07-18T15:52:58;32.40;33.90
26541;DHT22;14206;50.202;10.948;2022-07-18T15:55:25;32.20;34.70
26541;DHT22;14206;50.202;10.948;2022-07-18T15:57:57;31.90;35.30
26541;DHT22;14206;50.202;10.948;2022-07-18T16:00:23;31.70;37.00
26541;DHT22;14206;50.202;10.948;2022-07-18T16:02:50;31.60;35.10
26541;DHT22;14206;50.202;10.948;2022-07-18T16:05:17;31.50;35.90
26541;DHT22;14206;50.202;10.948;2022-07-18T16:07:45;31.40;36.50